sensor_id;sensor_type;location;lat;lon;timestamp;pressure;altitude;pressure_sealevel;temperature;humidity
43436;BME280;36399;51.444;-2.018;2023-08-06T00:00:56;101050.03;;;10.05;100.00
43436;BME280;36399;51.444;-2.018;2023-08-06T00:03:22;101060.53;;;10.05;100.00
43436;BME280;36399;51.444;-2.018;2023-08-06T00:05:48;101066.59;;;10.03;100.00
43436;BME280;36399;51.444;-2.018;2023-08-06T00:08:14;101070.88;;;9.99;100.00
43436;BME280;36399;51.444;-2.018;2023-08-06T00:10:40;101076.13;;;9.99;100.00
43436;BME280;36399;51.444;-2.018;2023-08-06T00:13:07;101083.22;;;10.03;100.00
43436;BME280;36399;51.444;-2.018;2023-08-06T00:15:33;101078.75;;;9.99;100.00
43436;BME280;36399;51.444;-2.018;2023-08-06T00:17:59;101087.47;;;9.98;100.00
43436;BME280;36399;51.444;-2.018;2023-08-06T00:20:25;101090.81;;;9.93;100.00
43436;BME280;36399;51.444;-2.018;2023-08-06T00:22:51;101099.56;;;9.93;100.00
43436;BME280;36399;51.444;-2.018;2023-08-06T00:25:17;101100.22;;;9.86;100.00
43436;BME280;36399;51.444;-2.018;2023-08-06T00:27:43;101106.28;;;9.84;100.00
43436;BME280;36399;51.444;-2.018;2023-08-06T00:30:09;101112.34;;;9.81;100.00
43436;BME280;36399;51.444;-2.018;2023-08-06T00:32:35;101123.56;;;9.75;100.00
43436;BME280;36399;51.444;-2.018;2023-08-06T00:35:01;101126.13;;;9.74;100.00
43436;BME280;36399;51.444;-2.018;2023-08-06T00:37:27;101129.53;;;9.70;100.00
43436;BME280;36399;51.444;-2.018;2023-08-06T00:39:53;101133.75;;;9.65;100.00
43436;BME280;36399;51.444;-2.018;2023-08-06T00:42:19;101132.81;;;9.63;100.00
43436;BME280;36399;51.444;-2.018;2023-08-06T00:44:46;101137.91;;;9.57;100.00
43436;BME280;36399;51.444;-2.018;2023-08-06T00:47:13;101142.09;;;9.50;100.00
43436;BME280;36399;51.444;-2.018;2023-08-06T00:49:39;101155.16;;;9.48;100.00
43436;BME280;36399;51.444;-2.018;2023-08-06T00:52:06;101149.88;;;9.47;100.00
43436;BME280;36399;51.444;-2.018;2023-08-06T00:54:34;101154.69;;;9.33;100.00
43436;BME280;36399;51.444;-2.018;2023-08-06T00:57:01;101156.34;;;9.30;100.00
43436;BME280;36399;51.444;-2.018;2023-08-06T00:59:28;101163.31;;;9.29;100.00
43436;BME280;36399;51.444;-2.018;2023-08-06T01:01:54;101163.84;;;9.17;100.00
43436;BME280;36399;51.444;-2.018;2023-08-06T01:04:20;101171.75;;;9.19;100.00
43436;BME280;36399;51.444;-2.018;2023-08-06T01:07:08;101176.72;;;9.10;100.00
43436;BME280;36399;51.444;-2.018;2023-08-06T01:09:48;101185.31;;;9.06;100.00
43436;BME280;36399;51.444;-2.018;2023-08-06T01:12:45;101186.81;;;8.98;100.00
43436;BME280;36399;51.444;-2.018;2023-08-06T01:15:23;101186.91;;;9.01;100.00
43436;BME280;36399;51.444;-2.018;2023-08-06T01:17:51;101191.00;;;8.91;100.00
43436;BME280;36399;51.444;-2.018;2023-08-06T01:20:18;101195.34;;;8.91;100.00
43436;BME280;36399;51.444;-2.018;2023-08-06T01:22:44;101197.03;;;8.89;100.00
43436;BME280;36399;51.444;-2.018;2023-08-06T01:25:10;101200.44;;;8.86;100.00
43436;BME280;36399;51.444;-2.018;2023-08-06T01:27:46;101208.25;;;8.84;100.00
43436;BME280;36399;51.444;-2.018;2023-08-06T01:30:17;101213.19;;;8.77;100.00
43436;BME280;36399;51.444;-2.018;2023-08-06T01:32:44;101221.94;;;8.77;100.00
43436;BME280;36399;51.444;-2.018;2023-08-06T01:35:14;101226.16;;;8.72;100.00
43436;BME280;36399;51.444;-2.018;2023-08-06T01:37:41;101229.91;;;8.80;100.00
43436;BME280;36399;51.444;-2.018;2023-08-06T01:40:11;101235.13;;;8.80;100.00
43436;BME280;36399;51.444;-2.018;2023-08-06T01:42:38;101243.72;;;8.76;100.00
43436;BME280;36399;51.444;-2.018;2023-08-06T01:45:08;101256.06;;;8.80;100.00
43436;BME280;36399;51.444;-2.018;2023-08-06T01:47:35;101259.53;;;8.79;100.00
43436;BME280;36399;51.444;-2.018;2023-08-06T01:50:01;101261.06;;;8.73;100.00
43436;BME280;36399;51.444;-2.018;2023-08-06T01:52:27;101263.59;;;8.70;100.00
43436;BME280;36399;51.444;-2.018;2023-08-06T01:54:54;101271.38;;;8.68;100.00
43436;BME280;36399;51.444;-2.018;2023-08-06T01:57:20;101278.88;;;8.58;100.00
43436;BME280;36399;51.444;-2.018;2023-08-06T01:59:46;101272.06;;;8.63;100.00
43436;BME280;36399;51.444;-2.018;2023-08-06T02:02:12;101279.66;;;8.55;100.00
43436;BME280;36399;51.444;-2.018;2023-08-06T02:04:38;101288.16;;;8.48;100.00
43436;BME280;36399;51.444;-2.018;2023-08-06T02:07:04;101290.50;;;8.40;100.00
43436;BME280;36399;51.444;-2.018;2023-08-06T02:09:30;101294.75;;;8.37;100.00
43436;BME280;36399;51.444;-2.018;2023-08-06T02:11:56;101283.09;;;8.30;100.00
43436;BME280;36399;51.444;-2.018;2023-08-06T02:14:22;101292.34;;;8.43;100.00
43436;BME280;36399;51.444;-2.018;2023-08-06T02:16:48;101291.00;;;8.32;100.00
43436;BME280;36399;51.444;-2.018;2023-08-06T02:19:15;101305.31;;;8.40;100.00
43436;BME280;36399;51.444;-2.018;2023-08-06T02:21:41;101300.09;;;8.40;100.00
43436;BME280;36399;51.444;-2.018;2023-08-06T02:24:07;101300.19;;;8.43;100.00
43436;BME280;36399;51.444;-2.018;2023-08-06T02:26:33;101309.09;;;8.48;100.00
43436;BME280;36399;51.444;-2.018;2023-08-06T02:28:58;101312.63;;;8.50;100.00
43436;BME280;36399;51.444;-2.018;2023-08-06T02:31:24;101310.56;;;8.40;100.00
43436;BME280;36399;51.444;-2.018;2023-08-06T02:33:50;101309.81;;;8.44;100.00
43436;BME280;36399;51.444;-2.018;2023-08-06T02:36:16;101303.75;;;8.45;100.00
43436;BME280;36399;51.444;-2.018;2023-08-06T02:38:42;101306.41;;;8.46;100.00
43436;BME280;36399;51.444;-2.018;2023-08-06T02:41:08;101308.66;;;8.36;100.00
43436;BME280;36399;51.444;-2.018;2023-08-06T02:43:34;101306.31;;;8.43;100.00
43436;BME280;36399;51.444;-2.018;2023-08-06T02:46:00;101317.03;;;8.51;100.00
43436;BME280;36399;51.444;-2.018;2023-08-06T02:48:26;101315.22;;;8.48;100.00
43436;BME280;36399;51.444;-2.018;2023-08-06T02:50:53;101325.00;;;8.54;100.00
43436;BME280;36399;51.444;-2.018;2023-08-06T02:53:19;101321.22;;;8.46;100.00
43436;BME280;36399;51.444;-2.018;2023-08-06T02:55:47;101321.06;;;8.41;100.00
43436;BME280;36399;51.444;-2.018;2023-08-06T02:58:16;101323.06;;;8.48;100.00
43436;BME280;36399;51.444;-2.018;2023-08-06T03:00:43;101330.03;;;8.48;100.00
43436;BME280;36399;51.444;-2.018;2023-08-06T03:03:10;101332.69;;;8.49;100.00
43436;BME280;36399;51.444;-2.018;2023-08-06T03:05:35;101329.44;;;8.57;100.00
43436;BME280;36399;51.444;-2.018;2023-08-06T03:08:01;101332.00;;;8.55;100.00
43436;BME280;36399;51.444;-2.018;2023-08-06T03:10:27;101332.78;;;8.52;100.00
43436;BME280;36399;51.444;-2.018;2023-08-06T03:12:53;101330.84;;;8.47;100.00
43436;BME280;36399;51.444;-2.018;2023-08-06T03:15:19;101331.06;;;8.53;100.00
43436;BME280;36399;51.444;-2.018;2023-08-06T03:17:45;101338.13;;;8.56;100.00
43436;BME280;36399;51.444;-2.018;2023-08-06T03:20:11;101339.84;;;8.55;100.00
43436;BME280;36399;51.444;-2.018;2023-08-06T03:22:37;101338.09;;;8.54;100.00
43436;BME280;36399;51.444;-2.018;2023-08-06T03:25:03;101333.72;;;8.54;100.00
43436;BME280;36399;51.444;-2.018;2023-08-06T03:27:29;101339.03;;;8.56;100.00
43436;BME280;36399;51.444;-2.018;2023-08-06T03:29:55;101340.47;;;8.48;100.00
43436;BME280;36399;51.444;-2.018;2023-08-06T03:32:21;101335.16;;;8.45;100.00
43436;BME280;36399;51.444;-2.018;2023-08-06T03:34:47;101337.91;;;8.49;100.00
43436;BME280;36399;51.444;-2.018;2023-08-06T03:37:13;101342.25;;;8.49;100.00
43436;BME280;36399;51.444;-2.018;2023-08-06T03:39:39;101343.09;;;8.48;100.00
43436;BME280;36399;51.444;-2.018;2023-08-06T03:42:05;101337.81;;;8.46;100.00
43436;BME280;36399;51.444;-2.018;2023-08-06T03:44:31;101338.50;;;8.41;100.00
43436;BME280;36399;51.444;-2.018;2023-08-06T03:46:57;101332.31;;;8.39;100.00
43436;BME280;36399;51.444;-2.018;2023-08-06T03:49:23;101337.31;;;8.33;100.00
43436;BME280;36399;51.444;-2.018;2023-08-06T03:51:49;101341.44;;;8.28;100.00
43436;BME280;36399;51.444;-2.018;2023-08-06T03:54:15;101323.88;;;8.23;100.00
43436;BME280;36399;51.444;-2.018;2023-08-06T03:56:41;101339.50;;;8.22;100.00
43436;BME280;36399;51.444;-2.018;2023-08-06T03:59:07;101343.84;;;8.21;100.00
43436;BME280;36399;51.444;-2.018;2023-08-06T04:01:33;101336.56;;;8.13;100.00
43436;BME280;36399;51.444;-2.018;2023-08-06T04:03:59;101340.56;;;8.03;100.00
43436;BME280;36399;51.444;-2.018;2023-08-06T04:06:25;101336.88;;;7.98;100.00
43436;BME280;36399;51.444;-2.018;2023-08-06T04:08:51;101340.09;;;7.91;100.00
43436;BME280;36399;51.444;-2.018;2023-08-06T04:11:17;101349.97;;;7.98;100.00
43436;BME280;36399;51.444;-2.018;2023-08-06T04:13:43;101348.19;;;7.97;100.00
43436;BME280;36399;51.444;-2.018;2023-08-06T04:16:10;101349.25;;;8.02;100.00
43436;BME280;36399;51.444;-2.018;2023-08-06T04:18:36;101349.34;;;8.05;100.00
43436;BME280;36399;51.444;-2.018;2023-08-06T04:21:02;101359.91;;;8.08;100.00
43436;BME280;36399;51.444;-2.018;2023-08-06T04:23:28;101361.47;;;8.03;100.00
43436;BME280;36399;51.444;-2.018;2023-08-06T04:25:57;101365.81;;;8.03;100.00
43436;BME280;36399;51.444;-2.018;2023-08-06T04:28:24;101368.38;;;8.01;100.00
43436;BME280;36399;51.444;-2.018;2023-08-06T04:30:49;101375.50;;;8.05;100.00
43436;BME280;36399;51.444;-2.018;2023-08-06T04:33:15;101377.28;;;8.06;100.00
43436;BME280;36399;51.444;-2.018;2023-08-06T04:35:41;101396.31;;;8.02;100.00
43436;BME280;36399;51.444;-2.018;2023-08-06T04:38:07;101386.84;;;8.06;100.00
43436;BME280;36399;51.444;-2.018;2023-08-06T04:40:35;101384.28;;;8.07;100.00
43436;BME280;36399;51.444;-2.018;2023-08-06T04:43:01;101386.75;;;8.03;100.00
43436;BME280;36399;51.444;-2.018;2023-08-06T04:45:26;101393.56;;;7.99;100.00
43436;BME280;36399;51.444;-2.018;2023-08-06T04:47:52;101387.28;;;7.94;100.00
43436;BME280;36399;51.444;-2.018;2023-08-06T04:50:21;101389.06;;;7.95;100.00
43436;BME280;36399;51.444;-2.018;2023-08-06T04:52:47;101388.13;;;7.93;100.00
43436;BME280;36399;51.444;-2.018;2023-08-06T04:55:13;101388.84;;;7.89;100.00
43436;BME280;36399;51.444;-2.018;2023-08-06T04:57:39;101392.63;;;7.97;100.00
43436;BME280;36399;51.444;-2.018;2023-08-06T05:00:05;101390.97;;;7.99;100.00
43436;BME280;36399;51.444;-2.018;2023-08-06T05:02:32;101396.31;;;8.02;100.00
43436;BME280;36399;51.444;-2.018;2023-08-06T05:04:58;101396.41;;;8.05;100.00
43436;BME280;36399;51.444;-2.018;2023-08-06T05:07:24;101398.31;;;8.09;100.00
43436;BME280;36399;51.444;-2.018;2023-08-06T05:09:50;101407.09;;;8.11;100.00
43436;BME280;36399;51.444;-2.018;2023-08-06T05:12:16;101407.00;;;8.08;100.00
43436;BME280;36399;51.444;-2.018;2023-08-06T05:14:42;101410.50;;;8.09;100.00
43436;BME280;36399;51.444;-2.018;2023-08-06T05:17:08;101406.00;;;8.05;100.00
43436;BME280;36399;51.444;-2.018;2023-08-06T05:19:34;101410.50;;;8.09;100.00
43436;BME280;36399;51.444;-2.018;2023-08-06T05:22:00;101410.00;;;8.19;100.00
43436;BME280;36399;51.444;-2.018;2023-08-06T05:24:27;101411.00;;;8.22;100.00
43436;BME280;36399;51.444;-2.018;2023-08-06T05:26:53;101411.97;;;8.24;100.00
43436;BME280;36399;51.444;-2.018;2023-08-06T05:29:19;101412.91;;;8.27;100.00
43436;BME280;36399;51.444;-2.018;2023-08-06T05:31:45;101419.91;;;8.28;100.00
43436;BME280;36399;51.444;-2.018;2023-08-06T05:34:11;101424.44;;;8.32;100.00
43436;BME280;36399;51.444;-2.018;2023-08-06T05:36:37;101431.56;;;8.34;100.00
43436;BME280;36399;51.444;-2.018;2023-08-06T05:39:03;101426.44;;;8.37;100.00
43436;BME280;36399;51.444;-2.018;2023-08-06T05:41:29;101432.69;;;8.41;100.00
43436;BME280;36399;51.444;-2.018;2023-08-06T05:43:55;101438.16;;;8.47;100.00
43436;BME280;36399;51.444;-2.018;2023-08-06T05:46:21;101433.84;;;8.49;100.00
43436;BME280;36399;51.444;-2.018;2023-08-06T05:48:47;101436.59;;;8.52;100.00
43436;BME280;36399;51.444;-2.018;2023-08-06T05:51:13;101438.25;;;8.50;100.00
43436;BME280;36399;51.444;-2.018;2023-08-06T05:53:39;101450.94;;;8.63;100.00
43436;BME280;36399;51.444;-2.018;2023-08-06T05:56:05;101459.84;;;8.68;100.00
43436;BME280;36399;51.444;-2.018;2023-08-06T05:58:30;101463.53;;;8.73;100.00
43436;BME280;36399;51.444;-2.018;2023-08-06T06:00:56;101461.97;;;8.78;100.00
43436;BME280;36399;51.444;-2.018;2023-08-06T06:03:22;101470.13;;;8.86;100.00
43436;BME280;36399;51.444;-2.018;2023-08-06T06:05:48;101480.09;;;8.96;100.00
43436;BME280;36399;51.444;-2.018;2023-08-06T06:08:14;101488.38;;;9.08;100.00
43436;BME280;36399;51.444;-2.018;2023-08-06T06:10:41;101490.78;;;9.28;100.00
43436;BME280;36399;51.444;-2.018;2023-08-06T06:13:07;101495.69;;;9.42;100.00
43436;BME280;36399;51.444;-2.018;2023-08-06T06:15:32;101503.31;;;9.62;100.00
43436;BME280;36399;51.444;-2.018;2023-08-06T06:17:58;101511.88;;;9.83;100.00
43436;BME280;36399;51.444;-2.018;2023-08-06T06:20:24;101511.53;;;9.99;100.00
43436;BME280;36399;51.444;-2.018;2023-08-06T06:22:50;101518.16;;;10.15;100.00
43436;BME280;36399;51.444;-2.018;2023-08-06T06:25:16;101513.91;;;10.19;100.00
43436;BME280;36399;51.444;-2.018;2023-08-06T06:27:42;101508.78;;;10.22;100.00
43436;BME280;36399;51.444;-2.018;2023-08-06T06:30:08;101505.31;;;10.23;100.00
43436;BME280;36399;51.444;-2.018;2023-08-06T06:32:34;101502.81;;;10.27;100.00
43436;BME280;36399;51.444;-2.018;2023-08-06T06:35:00;101502.31;;;10.39;100.00
43436;BME280;36399;51.444;-2.018;2023-08-06T06:37:26;101496.50;;;10.49;100.00
43436;BME280;36399;51.444;-2.018;2023-08-06T06:39:52;101489.06;;;10.64;100.00
43436;BME280;36399;51.444;-2.018;2023-08-06T06:42:18;101484.25;;;10.80;100.00
43436;BME280;36399;51.444;-2.018;2023-08-06T06:44:44;101483.63;;;10.88;100.00
43436;BME280;36399;51.444;-2.018;2023-08-06T06:47:10;101484.78;;;10.98;100.00
43436;BME280;36399;51.444;-2.018;2023-08-06T06:49:36;101483.28;;;11.07;100.00
43436;BME280;36399;51.444;-2.018;2023-08-06T06:52:02;101488.75;;;11.15;100.00
43436;BME280;36399;51.444;-2.018;2023-08-06T06:54:28;101483.72;;;11.24;100.00
43436;BME280;36399;51.444;-2.018;2023-08-06T06:56:54;101484.84;;;11.34;100.00
43436;BME280;36399;51.444;-2.018;2023-08-06T06:59:20;101486.09;;;11.47;100.00
43436;BME280;36399;51.444;-2.018;2023-08-06T07:01:46;101493.22;;;11.51;100.00
43436;BME280;36399;51.444;-2.018;2023-08-06T07:04:12;101495.28;;;11.64;100.00
43436;BME280;36399;51.444;-2.018;2023-08-06T07:06:38;101483.44;;;11.80;100.00
43436;BME280;36399;51.444;-2.018;2023-08-06T07:09:04;101485.31;;;11.85;100.00
43436;BME280;36399;51.444;-2.018;2023-08-06T07:11:30;101482.81;;;11.91;100.00
43436;BME280;36399;51.444;-2.018;2023-08-06T07:13:57;101477.59;;;11.93;100.00
43436;BME280;36399;51.444;-2.018;2023-08-06T07:16:26;101461.09;;;11.98;100.00
43436;BME280;36399;51.444;-2.018;2023-08-06T07:18:53;101458.56;;;12.03;100.00
43436;BME280;36399;51.444;-2.018;2023-08-06T07:21:20;101454.31;;;12.10;100.00
43436;BME280;36399;51.444;-2.018;2023-08-06T07:23:46;101443.91;;;12.14;100.00
43436;BME280;36399;51.444;-2.018;2023-08-06T07:26:12;101432.56;;;12.18;100.00
43436;BME280;36399;51.444;-2.018;2023-08-06T07:28:38;101416.94;;;12.26;100.00
43436;BME280;36399;51.444;-2.018;2023-08-06T07:31:04;101402.25;;;12.37;100.00
43436;BME280;36399;51.444;-2.018;2023-08-06T07:33:30;101401.66;;;12.50;100.00
43436;BME280;36399;51.444;-2.018;2023-08-06T07:35:56;101393.88;;;12.56;100.00
43436;BME280;36399;51.444;-2.018;2023-08-06T07:38:22;101367.81;;;12.72;100.00
43436;BME280;36399;51.444;-2.018;2023-08-06T07:40:48;101350.72;;;12.98;100.00
43436;BME280;36399;51.444;-2.018;2023-08-06T07:43:14;101339.69;;;13.19;100.00
43436;BME280;36399;51.444;-2.018;2023-08-06T07:45:40;101323.41;;;13.46;100.00
43436;BME280;36399;51.444;-2.018;2023-08-06T07:48:06;101282.13;;;13.49;100.00
43436;BME280;36399;51.444;-2.018;2023-08-06T07:50:32;101244.53;;;13.64;100.00
43436;BME280;36399;51.444;-2.018;2023-08-06T07:52:58;101209.38;;;13.65;100.00
43436;BME280;36399;51.444;-2.018;2023-08-06T07:55:25;101199.06;;;13.86;100.00
43436;BME280;36399;51.444;-2.018;2023-08-06T07:57:54;101179.63;;;13.78;100.00
43436;BME280;36399;51.444;-2.018;2023-08-06T08:00:20;101167.16;;;13.65;100.00
43436;BME280;36399;51.444;-2.018;2023-08-06T08:02:46;101149.59;;;13.67;100.00
43436;BME280;36399;51.444;-2.018;2023-08-06T08:05:12;101139.06;;;13.69;100.00
43436;BME280;36399;51.444;-2.018;2023-08-06T08:07:38;101131.22;;;13.78;100.00
43436;BME280;36399;51.444;-2.018;2023-08-06T08:10:04;101117.31;;;13.94;100.00
43436;BME280;36399;51.444;-2.018;2023-08-06T08:12:30;101123.78;;;14.25;100.00
43436;BME280;36399;51.444;-2.018;2023-08-06T08:14:56;101087.00;;;14.52;100.00
43436;BME280;36399;51.444;-2.018;2023-08-06T08:17:22;101072.88;;;14.44;100.00
43436;BME280;36399;51.444;-2.018;2023-08-06T08:19:48;101061.25;;;14.24;100.00
43436;BME280;36399;51.444;-2.018;2023-08-06T08:22:14;101048.09;;;14.32;100.00
43436;BME280;36399;51.444;-2.018;2023-08-06T08:24:40;101034.16;;;14.48;100.00
43436;BME280;36399;51.444;-2.018;2023-08-06T08:27:06;101022.88;;;14.79;100.00
43436;BME280;36399;51.444;-2.018;2023-08-06T08:29:32;101018.50;;;14.86;100.00
43436;BME280;36399;51.444;-2.018;2023-08-06T08:31:58;101000.13;;;15.21;100.00
43436;BME280;36399;51.444;-2.018;2023-08-06T08:34:24;100990.53;;;15.61;100.00
43436;BME280;36399;51.444;-2.018;2023-08-06T08:36:50;100985.25;;;15.67;100.00
43436;BME280;36399;51.444;-2.018;2023-08-06T08:39:16;100982.59;;;15.70;100.00
43436;BME280;36399;51.444;-2.018;2023-08-06T08:41:42;100985.25;;;15.61;100.00
43436;BME280;36399;51.444;-2.018;2023-08-06T08:44:09;100969.31;;;15.57;100.00
43436;BME280;36399;51.444;-2.018;2023-08-06T08:46:40;100967.59;;;15.75;100.00
43436;BME280;36399;51.444;-2.018;2023-08-06T08:49:06;100962.28;;;15.88;100.00
43436;BME280;36399;51.444;-2.018;2023-08-06T08:51:33;100958.78;;;15.70;100.00
43436;BME280;36399;51.444;-2.018;2023-08-06T08:54:04;100953.50;;;15.70;100.00
43436;BME280;36399;51.444;-2.018;2023-08-06T08:56:33;100958.78;;;15.76;100.00
43436;BME280;36399;51.444;-2.018;2023-08-06T08:58:59;100948.19;;;15.61;100.00
43436;BME280;36399;51.444;-2.018;2023-08-06T09:01:26;100936.72;;;15.68;100.00
43436;BME280;36399;51.444;-2.018;2023-08-06T09:03:54;100936.72;;;15.82;100.00
43436;BME280;36399;51.444;-2.018;2023-08-06T09:06:23;100936.66;;;16.03;100.00
43436;BME280;36399;51.444;-2.018;2023-08-06T09:09:01;100908.44;;;15.92;100.00
43436;BME280;36399;51.444;-2.018;2023-08-06T09:11:36;100933.16;;;15.95;100.00
43436;BME280;36399;51.444;-2.018;2023-08-06T09:14:06;100921.56;;;16.40;100.00
43436;BME280;36399;51.444;-2.018;2023-08-06T09:16:34;100924.06;;;16.85;100.00
43436;BME280;36399;51.444;-2.018;2023-08-06T09:19:11;100926.69;;;16.86;100.00
43436;BME280;36399;51.444;-2.018;2023-08-06T09:21:43;100925.69;;;17.09;100.00
43436;BME280;36399;51.444;-2.018;2023-08-06T09:24:11;100919.56;;;16.97;100.00
43436;BME280;36399;51.444;-2.018;2023-08-06T09:26:41;100925.03;;;16.67;100.00
43436;BME280;36399;51.444;-2.018;2023-08-06T09:29:09;100931.25;;;16.46;100.00
43436;BME280;36399;51.444;-2.018;2023-08-06T09:31:47;100935.59;;;16.64;100.00
43436;BME280;36399;51.444;-2.018;2023-08-06T09:34:21;100942.78;;;16.34;100.00
43436;BME280;36399;51.444;-2.018;2023-08-06T09:36:49;100946.25;;;16.67;100.00
43436;BME280;36399;51.444;-2.018;2023-08-06T09:39:27;100943.38;;;17.07;100.00
43436;BME280;36399;51.444;-2.018;2023-08-06T09:42:01;100943.34;;;17.11;100.00
43436;BME280;36399;51.444;-2.018;2023-08-06T09:44:29;100934.41;;;17.27;100.00
43436;BME280;36399;51.444;-2.018;2023-08-06T09:46:56;100934.34;;;17.38;100.00
43436;BME280;36399;51.444;-2.018;2023-08-06T09:49:27;100932.50;;;17.46;100.00
43436;BME280;36399;51.444;-2.018;2023-08-06T09:51:54;100922.31;;;18.00;100.00
43436;BME280;36399;51.444;-2.018;2023-08-06T09:54:24;100915.63;;;18.45;100.00
43436;BME280;36399;51.444;-2.018;2023-08-06T09:56:53;100910.94;;;18.67;100.00
43436;BME280;36399;51.444;-2.018;2023-08-06T09:59:19;100929.97;;;18.31;100.00
43436;BME280;36399;51.444;-2.018;2023-08-06T10:01:46;100920.16;;;17.41;100.00
43436;BME280;36399;51.444;-2.018;2023-08-06T10:04:14;100926.63;;;16.98;100.00
43436;BME280;36399;51.444;-2.018;2023-08-06T10:06:42;100928.34;;;17.06;100.00
43436;BME280;36399;51.444;-2.018;2023-08-06T10:09:11;100929.38;;;16.80;100.00
43436;BME280;36399;51.444;-2.018;2023-08-06T10:11:39;100934.41;;;17.30;100.00
43436;BME280;36399;51.444;-2.018;2023-08-06T10:14:32;100933.19;;;17.74;100.00
43436;BME280;36399;51.444;-2.018;2023-08-06T10:16:59;100920.88;;;17.59;100.00
43436;BME280;36399;51.444;-2.018;2023-08-06T10:19:26;100924.19;;;17.89;100.00
43436;BME280;36399;51.444;-2.018;2023-08-06T10:22:16;100913.66;;;19.27;100.00
43436;BME280;36399;51.444;-2.018;2023-08-06T10:29:48;100901.44;;;22.43;100.00
43436;BME280;36399;51.444;-2.018;2023-08-06T10:32:15;100895.34;;;22.36;100.00
43436;BME280;36399;51.444;-2.018;2023-08-06T10:34:59;100904.81;;;21.10;100.00
43436;BME280;36399;51.444;-2.018;2023-08-06T10:37:36;100915.34;;;19.87;100.00
43436;BME280;36399;51.444;-2.018;2023-08-06T10:40:03;100912.75;;;19.82;100.00
43436;BME280;36399;51.444;-2.018;2023-08-06T10:42:30;100911.28;;;19.64;100.00
43436;BME280;36399;51.444;-2.018;2023-08-06T10:45:15;100916.44;;;20.21;100.00
43436;BME280;36399;51.444;-2.018;2023-08-06T10:47:42;100916.47;;;20.66;100.00
43436;BME280;36399;51.444;-2.018;2023-08-06T10:50:11;100909.91;;;20.39;100.00
43436;BME280;36399;51.444;-2.018;2023-08-06T10:52:37;100909.31;;;20.23;100.00
43436;BME280;36399;51.444;-2.018;2023-08-06T10:55:03;100901.63;;;20.53;100.00
43436;BME280;36399;51.444;-2.018;2023-08-06T10:57:29;100901.16;;;20.74;100.00
43436;BME280;36399;51.444;-2.018;2023-08-06T10:59:55;100910.66;;;19.99;100.00
43436;BME280;36399;51.444;-2.018;2023-08-06T11:02:21;100907.59;;;20.19;100.00
43436;BME280;36399;51.444;-2.018;2023-08-06T11:04:48;100905.56;;;19.87;100.00
43436;BME280;36399;51.444;-2.018;2023-08-06T11:07:14;100908.75;;;19.57;100.00
43436;BME280;36399;51.444;-2.018;2023-08-06T11:09:40;100910.13;;;19.25;100.00
43436;BME280;36399;51.444;-2.018;2023-08-06T11:12:10;100907.16;;;19.97;100.00
43436;BME280;36399;51.444;-2.018;2023-08-06T11:14:36;100901.75;;;20.88;100.00
43436;BME280;36399;51.444;-2.018;2023-08-06T11:17:02;100897.66;;;21.83;100.00
43436;BME280;36399;51.444;-2.018;2023-08-06T11:19:29;100890.63;;;22.75;100.00
43436;BME280;36399;51.444;-2.018;2023-08-06T11:21:55;100892.94;;;23.17;100.00
43436;BME280;36399;51.444;-2.018;2023-08-06T11:24:24;100898.28;;;22.27;100.00
43436;BME280;36399;51.444;-2.018;2023-08-06T11:26:50;100906.44;;;22.22;100.00
43436;BME280;36399;51.444;-2.018;2023-08-06T11:29:16;100908.81;;;20.91;100.00
43436;BME280;36399;51.444;-2.018;2023-08-06T11:31:42;100914.28;;;19.95;100.00
43436;BME280;36399;51.444;-2.018;2023-08-06T11:34:08;100921.56;;;19.32;100.00
43436;BME280;36399;51.444;-2.018;2023-08-06T11:36:40;100934.72;;;18.79;100.00
43436;BME280;36399;51.444;-2.018;2023-08-06T11:39:06;100970.44;;;17.60;100.00
43436;BME280;36399;51.444;-2.018;2023-08-06T11:41:33;101002.78;;;16.72;100.00
43436;BME280;36399;51.444;-2.018;2023-08-06T11:43:59;101043.50;;;16.19;100.00
43436;BME280;36399;51.444;-2.018;2023-08-06T11:46:28;101059.38;;;16.04;100.00
43436;BME280;36399;51.444;-2.018;2023-08-06T11:48:55;101080.56;;;15.98;100.00
43436;BME280;36399;51.444;-2.018;2023-08-06T11:51:27;101086.75;;;16.06;100.00
43436;BME280;36399;51.444;-2.018;2023-08-06T11:53:57;101107.03;;;16.04;100.00
43436;BME280;36399;51.444;-2.018;2023-08-06T11:56:24;101111.50;;;16.17;100.00
43436;BME280;36399;51.444;-2.018;2023-08-06T11:58:51;101093.81;;;16.07;100.00
43436;BME280;36399;51.444;-2.018;2023-08-06T12:01:18;101071.72;;;16.51;100.00
43436;BME280;36399;51.444;-2.018;2023-08-06T12:03:44;101040.56;;;17.24;100.00
43436;BME280;36399;51.444;-2.018;2023-08-06T12:06:10;101017.84;;;18.12;100.00
43436;BME280;36399;51.444;-2.018;2023-08-06T12:08:36;100997.78;;;18.70;100.00
43436;BME280;36399;51.444;-2.018;2023-08-06T12:11:04;100955.06;;;19.45;100.00
43436;BME280;36399;51.444;-2.018;2023-08-06T12:13:30;100937.53;;;20.35;100.00
43436;BME280;36399;51.444;-2.018;2023-08-06T12:15:56;100922.84;;;20.12;100.00
43436;BME280;36399;51.444;-2.018;2023-08-06T12:18:23;100917.22;;;20.72;100.00
43436;BME280;36399;51.444;-2.018;2023-08-06T12:20:49;100913.06;;;21.39;100.00
43436;BME280;36399;51.444;-2.018;2023-08-06T12:23:15;100903.84;;;22.19;100.00
43436;BME280;36399;51.444;-2.018;2023-08-06T12:25:42;100899.59;;;21.78;100.00
43436;BME280;36399;51.444;-2.018;2023-08-06T12:28:07;100894.69;;;22.28;100.00
43436;BME280;36399;51.444;-2.018;2023-08-06T12:30:35;100897.31;;;21.63;100.00
43436;BME280;36399;51.444;-2.018;2023-08-06T12:33:01;100887.47;;;21.65;100.00
43436;BME280;36399;51.444;-2.018;2023-08-06T12:35:27;100884.28;;;20.73;100.00
43436;BME280;36399;51.444;-2.018;2023-08-06T12:37:53;100885.94;;;19.91;100.00
43436;BME280;36399;51.444;-2.018;2023-08-06T12:40:20;100908.13;;;18.79;100.00